createdAt,value
2018-11-05T00:00:20.778Z,116.30
2018-11-05T00:02:50.705Z,113.43
2018-11-05T00:05:19.187Z,119.20
2018-11-05T00:07:47.587Z,106.37
2018-11-05T00:10:15.939Z,115.83
2018-11-05T00:12:44.340Z,110.73
2018-11-05T00:15:12.715Z,108.80
2018-11-05T00:17:41.090Z,113.20
2018-11-05T00:20:10.423Z,110.43
2018-11-05T00:22:38.782Z,102.63
2018-11-05T00:25:08.417Z,106.17
2018-11-05T00:27:36.746Z,108.73
2018-11-05T00:30:05.493Z,108.17
2018-11-05T00:32:33.895Z,111.07
2018-11-05T00:35:02.267Z,99.57
2018-11-05T00:37:30.638Z,107.23
2018-11-05T00:39:58.988Z,106.77
2018-11-05T00:42:27.343Z,106.90
2018-11-05T00:44:55.669Z,105.83
2018-11-05T00:47:24.035Z,105.30
2018-11-05T00:49:52.345Z,104.33
2018-11-05T00:52:20.706Z,108.50
2018-11-05T00:54:48.991Z,99.93
2018-11-05T00:57:17.343Z,109.87
2018-11-05T00:59:45.715Z,109.97
2018-11-05T01:02:15.733Z,108.10
2018-11-05T01:04:44.076Z,104.00
2018-11-05T01:07:12.418Z,103.20
2018-11-05T01:09:40.747Z,106.30
2018-11-05T01:12:09.063Z,101.03
2018-11-05T01:14:37.403Z,108.83
2018-11-05T01:17:06.112Z,99.53
2018-11-05T01:19:34.439Z,101.17
2018-11-05T01:22:02.797Z,94.90
2018-11-05T01:24:31.109Z,103.43
2018-11-05T01:26:59.500Z,96.80
2018-11-05T01:29:27.870Z,109.40
2018-11-05T01:31:56.177Z,101.23
2018-11-05T01:34:24.449Z,101.53
2018-11-05T01:36:52.779Z,106.93
2018-11-05T01:39:21.086Z,104.23
2018-11-05T01:41:49.377Z,98.53
2018-11-05T01:44:17.734Z,110.37
2018-11-05T01:46:46.078Z,101.87
2018-11-05T01:49:14.383Z,104.83
2018-11-05T01:51:42.732Z,113.93
2018-11-05T01:54:11.043Z,104.03
2018-11-05T01:56:39.362Z,102.77
2018-11-05T01:59:07.724Z,102.53
2018-11-05T02:01:36.030Z,102.43
2018-11-05T02:04:04.346Z,96.87
2018-11-05T02:06:32.681Z,99.23
2018-11-05T02:09:00.992Z,101.83
2018-11-05T02:11:29.285Z,107.67
2018-11-05T02:13:57.599Z,106.87
2018-11-05T02:16:25.934Z,99.27
2018-11-05T02:18:54.219Z,101.13
2018-11-05T02:21:22.601Z,102.37
2018-11-05T02:23:51.030Z,107.47
2018-11-05T02:26:19.351Z,100.33
2018-11-05T02:28:47.679Z,105.83
2018-11-05T02:31:16.010Z,103.33
2018-11-05T02:33:44.415Z,106.93
2018-11-05T02:36:12.748Z,100.30
2018-11-05T02:38:41.087Z,101.73
2018-11-05T02:41:09.410Z,102.80
2018-11-05T02:43:37.742Z,104.97
2018-11-05T02:46:06.094Z,102.70
2018-11-05T02:48:34.434Z,108.73
2018-11-05T02:51:02.775Z,106.17
2018-11-05T02:53:31.062Z,113.30
2018-11-05T02:55:59.391Z,108.00
2018-11-05T02:58:28.425Z,104.17
2018-11-05T03:00:57.524Z,106.53
2018-11-05T03:03:25.927Z,101.43
2018-11-05T03:05:54.251Z,105.13
2018-11-05T03:08:22.575Z,106.70
2018-11-05T03:10:51.004Z,109.50
2018-11-05T03:13:19.352Z,103.97
2018-11-05T03:15:47.651Z,97.47
2018-11-05T03:18:16.016Z,105.43
2018-11-05T03:20:44.397Z,108.17
2018-11-05T03:23:12.777Z,103.70
2018-11-05T03:25:41.171Z,106.73
2018-11-05T03:28:09.574Z,108.30
2018-11-05T03:30:37.882Z,108.43
2018-11-05T03:33:06.205Z,106.67
2018-11-05T03:35:34.526Z,105.40
2018-11-05T03:38:02.888Z,100.67
2018-11-05T03:40:31.211Z,108.83
2018-11-05T03:42:59.551Z,111.00
2018-11-05T03:45:27.865Z,109.23
2018-11-05T03:47:56.224Z,106.33
2018-11-05T03:50:24.552Z,105.37
2018-11-05T03:52:52.867Z,96.50
2018-11-05T03:55:21.234Z,102.93
2018-11-05T03:57:49.573Z,106.17
2018-11-05T04:00:18.607Z,104.57
2018-11-05T04:02:46.906Z,104.77
2018-11-05T04:05:15.312Z,99.30
2018-11-05T04:07:43.607Z,106.90
2018-11-05T04:10:12.958Z,109.80
2018-11-05T04:12:41.309Z,99.67
2018-11-05T04:15:10.064Z,96.53
2018-11-05T04:17:38.407Z,99.70
2018-11-05T04:20:08.996Z,93.40
2018-11-05T04:22:37.391Z,99.30
2018-11-05T04:25:05.825Z,101.50
2018-11-05T04:27:34.204Z,107.03
2018-11-05T04:30:02.626Z,96.40
2018-11-05T04:32:30.917Z,94.27
2018-11-05T04:34:59.256Z,99.53
2018-11-05T04:37:27.621Z,99.90
2018-11-05T04:39:55.954Z,104.20
2018-11-05T04:42:24.276Z,96.70
2018-11-05T04:44:52.587Z,100.57
2018-11-05T04:47:20.916Z,104.20
2018-11-05T04:49:49.238Z,99.87
2018-11-05T04:52:17.569Z,99.63
2018-11-05T04:54:45.869Z,98.33
2018-11-05T04:57:14.191Z,104.23
2018-11-05T04:59:42.476Z,106.70
2018-11-05T05:02:10.777Z,107.57
2018-11-05T05:04:39.121Z,106.27
2018-11-05T05:07:07.708Z,101.67
2018-11-05T05:09:36.017Z,105.10
2018-11-05T05:12:04.382Z,102.33
2018-11-05T05:14:32.745Z,108.57
2018-11-05T05:17:01.082Z,110.13
2018-11-05T05:19:29.434Z,115.87
2018-11-05T05:21:57.746Z,118.37
2018-11-05T05:24:26.089Z,112.87
2018-11-05T05:26:54.419Z,124.80
2018-11-05T05:29:22.736Z,118.13
2018-11-05T05:31:51.117Z,122.37
2018-11-05T05:34:19.464Z,125.63
2018-11-05T05:36:47.790Z,113.77
2018-11-05T05:39:16.064Z,113.97
2018-11-05T05:41:44.502Z,116.90
2018-11-05T05:44:12.855Z,115.90
2018-11-05T05:46:41.188Z,117.30
2018-11-05T05:49:09.534Z,111.03
2018-11-05T05:51:37.954Z,119.33
2018-11-05T05:54:06.572Z,122.57
2018-11-05T05:56:34.942Z,122.37
2018-11-05T05:59:03.256Z,124.87
2018-11-05T06:01:31.618Z,117.43
2018-11-05T06:04:00.013Z,116.10
2018-11-05T06:06:28.395Z,117.60
2018-11-05T06:08:56.628Z,115.47
2018-11-05T06:11:24.978Z,119.50
2018-11-05T06:13:53.320Z,117.70
2018-11-05T06:16:21.812Z,110.63
2018-11-05T06:18:50.181Z,114.20
2018-11-05T06:21:18.518Z,115.87
2018-11-05T06:23:46.801Z,113.73
2018-11-05T06:26:15.164Z,117.33
2018-11-05T06:28:43.560Z,113.83
2018-11-05T06:31:11.824Z,116.37
2018-11-05T06:33:40.157Z,119.67
2018-11-05T06:36:08.561Z,114.83
2018-11-05T06:38:36.892Z,116.80
2018-11-05T06:41:05.905Z,108.60
2018-11-05T06:43:34.211Z,107.23
2018-11-05T06:46:02.514Z,104.33
2018-11-05T06:48:30.918Z,111.67
2018-11-05T06:50:59.260Z,106.73
2018-11-05T06:53:27.638Z,120.00
2018-11-05T06:55:56.046Z,108.37
2018-11-05T06:58:24.376Z,107.87
2018-11-05T07:00:52.708Z,110.53
2018-11-05T07:03:21.044Z,106.83
2018-11-05T07:05:49.513Z,102.40
2018-11-05T07:08:17.731Z,104.77
2018-11-05T07:10:46.129Z,105.27
2018-11-05T07:13:14.492Z,105.07
2018-11-05T07:15:42.835Z,106.93
2018-11-05T07:18:11.307Z,100.03
2018-11-05T07:20:39.618Z,98.00
2018-11-05T07:23:07.923Z,99.17
2018-11-05T07:25:36.283Z,102.00
2018-11-05T07:28:04.732Z,102.57
2018-11-05T07:30:33.084Z,97.77
2018-11-05T07:33:01.435Z,90.30
2018-11-05T07:35:29.767Z,99.13
2018-11-05T07:37:58.104Z,95.90
2018-11-05T07:40:26.465Z,92.30
2018-11-05T07:42:54.860Z,94.83
2018-11-05T07:45:24.157Z,99.43
2018-11-05T07:47:52.579Z,96.23
2018-11-05T07:50:21.995Z,102.87
2018-11-05T07:52:50.783Z,96.47
2018-11-05T07:55:19.693Z,99.47
2018-11-05T07:57:49.082Z,96.77
2018-11-05T08:00:23.033Z,99.23
2018-11-05T08:02:53.074Z,100.97
2018-11-05T08:05:22.124Z,96.90
2018-11-05T08:07:50.822Z,97.13
2018-11-05T08:10:19.212Z,100.20
2018-11-05T08:12:47.559Z,99.33
2018-11-05T08:15:17.336Z,101.57
2018-11-05T08:17:46.764Z,97.27
2018-11-05T08:20:15.187Z,98.43
2018-11-05T08:22:43.654Z,94.03
2018-11-05T08:25:12.827Z,91.97
2018-11-05T08:27:41.227Z,89.23
2018-11-05T08:30:13.111Z,91.43
2018-11-05T08:32:41.438Z,90.10
2018-11-05T08:35:10.811Z,88.40
2018-11-05T08:37:39.354Z,92.20
2018-11-05T08:40:10.479Z,81.07
2018-11-05T08:42:39.098Z,93.07
2018-11-05T08:45:07.737Z,90.83
2018-11-05T08:47:36.069Z,84.13
2018-11-05T08:50:04.576Z,89.00
2018-11-05T08:52:32.868Z,88.07
2018-11-05T08:55:01.217Z,82.77
2018-11-05T08:57:29.622Z,92.47
2018-11-05T08:59:58.025Z,92.80
2018-11-05T09:02:26.313Z,84.50
2018-11-05T09:04:54.706Z,90.10
2018-11-05T09:07:23.071Z,88.70
2018-11-05T09:09:51.505Z,83.10
2018-11-05T09:12:19.782Z,90.40
2018-11-05T09:14:48.136Z,84.17
2018-11-05T09:17:16.538Z,87.13
2018-11-05T09:19:44.893Z,93.27
2018-11-05T09:22:13.278Z,80.87
2018-11-05T09:24:41.592Z,82.30
2018-11-05T09:27:09.973Z,83.63
2018-11-05T09:29:38.346Z,83.17
2018-11-05T09:32:06.706Z,85.93
2018-11-05T09:34:35.068Z,83.97
2018-11-05T09:37:03.443Z,84.23
2018-11-05T09:39:31.898Z,78.97
2018-11-05T09:42:00.262Z,85.30
2018-11-05T09:44:28.852Z,82.33
2018-11-05T09:46:57.267Z,86.50
2018-11-05T09:49:25.708Z,81.63
2018-11-05T09:51:54.066Z,76.17
2018-11-05T09:54:22.491Z,76.27
2018-11-05T09:56:50.857Z,77.50
2018-11-05T09:59:19.206Z,82.83
2018-11-05T10:01:47.653Z,75.73
2018-11-05T10:04:16.163Z,77.53
2018-11-05T10:06:44.452Z,78.40
2018-11-05T10:09:13.242Z,77.10
2018-11-05T10:11:41.645Z,75.13
2018-11-05T10:14:10.153Z,78.07
2018-11-05T10:16:38.961Z,78.50
2018-11-05T10:19:07.666Z,74.20
2018-11-05T10:21:36.093Z,76.53
2018-11-05T10:24:04.435Z,73.53
2018-11-05T10:26:32.945Z,77.90
2018-11-05T10:29:01.368Z,73.63
2018-11-05T10:31:29.761Z,73.67
2018-11-05T10:33:58.140Z,78.20
2018-11-05T10:36:26.518Z,70.60
2018-11-05T10:38:54.937Z,77.33
2018-11-05T10:41:23.304Z,70.93
2018-11-05T10:43:51.645Z,73.77
2018-11-05T10:46:20.735Z,74.53
2018-11-05T10:48:49.124Z,77.53
2018-11-05T10:51:17.622Z,75.60
2018-11-05T10:53:45.936Z,71.87
2018-11-05T10:56:14.286Z,73.67
2018-11-05T10:58:42.609Z,74.07
2018-11-05T11:01:12.907Z,78.03
2018-11-05T11:03:41.517Z,77.70
2018-11-05T11:06:10.779Z,76.63
2018-11-05T11:08:39.134Z,75.33
2018-11-05T11:11:07.468Z,81.37
2018-11-05T11:13:35.865Z,74.70
2018-11-05T11:16:04.173Z,78.30
2018-11-05T11:18:32.518Z,81.27
2018-11-05T11:21:01.006Z,77.97
2018-11-05T11:23:29.387Z,78.33
2018-11-05T11:25:57.743Z,76.90
2018-11-05T11:28:26.139Z,81.33
2018-11-05T11:30:54.436Z,77.07
2018-11-05T11:33:22.820Z,80.03
2018-11-05T11:35:51.210Z,82.37
2018-11-05T11:38:19.533Z,83.93
2018-11-05T11:40:47.892Z,76.47
2018-11-05T11:43:16.247Z,87.83
2018-11-05T11:45:44.630Z,90.13
2018-11-05T11:48:13.071Z,97.10
2018-11-05T11:50:41.488Z,90.23
2018-11-05T11:53:09.933Z,91.20
2018-11-05T11:55:38.284Z,102.57
2018-11-05T11:58:06.658Z,94.90
2018-11-05T12:00:35.071Z,93.43
2018-11-05T12:03:03.408Z,90.17
2018-11-05T12:05:31.808Z,91.27
2018-11-05T12:08:00.208Z,100.40
2018-11-05T12:10:28.574Z,94.37
2018-11-05T12:12:56.906Z,108.07
2018-11-05T12:15:25.297Z,100.40
2018-11-05T12:17:54.084Z,102.07
2018-11-05T12:20:23.809Z,99.20
2018-11-05T12:22:55.660Z,99.20
2018-11-05T12:25:23.999Z,100.63
2018-11-05T12:27:52.354Z,102.77
2018-11-05T12:30:22.842Z,99.83
2018-11-05T12:32:52.467Z,103.80
2018-11-05T12:35:20.779Z,104.23
2018-11-05T12:37:50.248Z,99.67
2018-11-05T12:40:19.547Z,108.80
2018-11-05T12:42:48.853Z,100.37
2018-11-05T12:45:17.286Z,102.10
2018-11-05T12:47:45.696Z,102.67
2018-11-05T12:50:17.501Z,96.97
2018-11-05T12:52:46.641Z,108.80
2018-11-05T12:55:14.957Z,98.03
2018-11-05T12:57:43.328Z,110.63
2018-11-05T13:00:15.764Z,120.77
2018-11-05T13:02:44.133Z,113.70
2018-11-05T13:05:13.553Z,113.90
2018-11-05T13:07:42.200Z,126.33
2018-11-05T13:10:16.741Z,107.10
2018-11-05T13:12:45.121Z,117.57
2018-11-05T13:15:13.511Z,111.60
2018-11-05T13:17:42.190Z,119.57
2018-11-05T13:20:17.910Z,123.43
2018-11-05T13:22:46.492Z,114.03
2018-11-05T13:25:15.096Z,110.97
2018-11-05T13:27:45.343Z,115.57
2018-11-05T13:30:14.510Z,122.03
2018-11-05T13:32:43.380Z,123.33
2018-11-05T13:35:13.894Z,124.57
2018-11-05T13:37:42.934Z,128.07
2018-11-05T13:40:15.297Z,119.93
2018-11-05T13:42:44.059Z,124.97
2018-11-05T13:45:13.526Z,128.90
2018-11-05T13:47:42.643Z,129.93
2018-11-05T13:50:11.751Z,118.23
2018-11-05T13:52:40.205Z,112.37
2018-11-05T13:55:10.499Z,113.57
2018-11-05T13:57:38.859Z,100.30
2018-11-05T14:00:09.120Z,109.40
2018-11-05T14:02:37.428Z,103.63
2018-11-05T14:05:05.754Z,98.93
2018-11-05T14:07:34.181Z,102.43
2018-11-05T14:10:02.515Z,108.73
2018-11-05T14:12:30.876Z,103.67
2018-11-05T14:14:59.270Z,105.40
2018-11-05T14:17:27.653Z,109.50
2018-11-05T14:19:56.015Z,109.33
2018-11-05T14:22:24.406Z,113.90
2018-11-05T14:24:52.849Z,118.43
2018-11-05T14:27:21.232Z,115.00
2018-11-05T14:29:50.311Z,108.90
2018-11-05T14:32:23.565Z,115.87
2018-11-05T14:34:51.925Z,110.17
2018-11-05T14:37:20.799Z,109.53
2018-11-05T14:39:49.144Z,110.23
2018-11-05T14:42:17.496Z,109.13
2018-11-05T14:44:45.906Z,104.90
2018-11-05T14:47:14.253Z,107.70
2018-11-05T14:49:42.759Z,111.47
2018-11-05T14:52:11.169Z,112.60
2018-11-05T14:54:39.548Z,100.43
2018-11-05T14:57:08.305Z,108.33
2018-11-05T14:59:36.715Z,109.43
2018-11-05T15:02:10.713Z,117.07
2018-11-05T15:04:39.046Z,111.53
2018-11-05T15:07:07.566Z,110.20
2018-11-05T15:09:35.986Z,113.87
2018-11-05T15:12:04.322Z,114.20
2018-11-05T15:14:32.748Z,115.93
2018-11-05T15:17:01.210Z,108.90
2018-11-05T15:19:30.130Z,112.77
2018-11-05T15:21:58.137Z,104.70
2018-11-05T15:24:26.557Z,112.20
2018-11-05T15:26:55.162Z,123.57
2018-11-05T15:29:23.508Z,113.60
2018-11-05T15:31:51.878Z,126.30
2018-11-05T15:34:20.308Z,112.13
2018-11-05T15:36:48.700Z,112.07
2018-11-05T15:39:17.132Z,114.87
2018-11-05T15:41:45.540Z,113.70
2018-11-05T15:44:14.066Z,106.17
2018-11-05T15:46:42.508Z,108.77
2018-11-05T15:49:10.934Z,104.23
2018-11-05T15:51:39.765Z,108.87
2018-11-05T15:54:07.839Z,109.87
2018-11-05T15:56:36.027Z,104.30
2018-11-05T15:59:04.452Z,106.20
2018-11-05T16:01:32.793Z,101.00
2018-11-05T16:04:01.205Z,90.00
2018-11-05T16:06:29.645Z,94.57
2018-11-05T16:08:58.097Z,101.67
2018-11-05T16:11:26.591Z,96.13
2018-11-05T16:13:54.975Z,92.10
2018-11-05T16:16:23.302Z,93.77
2018-11-05T16:18:51.708Z,91.43
2018-11-05T16:21:20.070Z,98.63
2018-11-05T16:23:48.460Z,94.63
2018-11-05T16:26:16.835Z,86.83
2018-11-05T16:28:45.172Z,101.23
2018-11-05T16:31:13.576Z,94.83
2018-11-05T16:33:41.957Z,105.27
2018-11-05T16:36:10.301Z,104.67
2018-11-05T16:38:38.799Z,99.27
2018-11-05T16:41:07.118Z,102.43
2018-11-05T16:43:35.479Z,92.23
2018-11-05T16:46:03.857Z,93.30
2018-11-05T16:48:32.217Z,96.10
2018-11-05T16:51:00.616Z,94.93
2018-11-05T16:53:29.006Z,102.07
2018-11-05T16:55:57.372Z,94.13
2018-11-05T16:58:25.757Z,96.30
2018-11-05T17:00:54.139Z,98.47
2018-11-05T17:03:22.541Z,92.37
2018-11-05T17:05:51.011Z,93.90
2018-11-05T17:08:19.414Z,88.90
2018-11-05T17:10:47.981Z,88.70
2018-11-05T17:13:16.403Z,92.40
2018-11-05T17:15:44.743Z,98.83
2018-11-05T17:18:13.120Z,100.87
2018-11-05T17:20:41.495Z,102.50
2018-11-05T17:23:09.864Z,97.13
2018-11-05T17:25:38.949Z,91.40
2018-11-05T17:28:07.565Z,88.13
2018-11-05T17:30:36.066Z,96.10
2018-11-05T17:33:04.405Z,90.77
2018-11-05T17:35:32.733Z,103.07
2018-11-05T17:38:01.217Z,92.37
2018-11-05T17:40:29.660Z,97.13
2018-11-05T17:42:58.040Z,95.27
2018-11-05T17:45:26.425Z,117.20
2018-11-05T17:47:54.833Z,99.63
2018-11-05T17:50:23.247Z,101.00
2018-11-05T17:52:51.623Z,104.43
2018-11-05T17:55:19.942Z,112.83
2018-11-05T17:57:48.823Z,93.60
2018-11-05T18:00:19.295Z,94.07
2018-11-05T18:02:47.734Z,93.07
2018-11-05T18:05:16.383Z,89.33
2018-11-05T18:07:44.988Z,96.57
2018-11-05T18:10:13.417Z,95.27
2018-11-05T18:12:41.897Z,98.70
2018-11-05T18:15:11.395Z,89.10
2018-11-05T18:17:40.714Z,148.90
2018-11-05T18:20:10.578Z,133.67
2018-11-05T18:22:38.981Z,102.00
2018-11-05T18:25:09.461Z,92.33
2018-11-05T18:27:37.940Z,93.47
2018-11-05T18:30:06.831Z,94.67
2018-11-05T18:32:36.276Z,88.80
2018-11-05T18:35:04.641Z,96.07
2018-11-05T18:37:33.000Z,97.23
2018-11-05T18:40:01.388Z,96.07
2018-11-05T18:42:29.833Z,107.10
2018-11-05T18:44:58.316Z,95.07
2018-11-05T18:47:26.729Z,99.93
2018-11-05T18:49:55.118Z,129.53
2018-11-05T18:52:23.615Z,138.77
2018-11-05T18:54:52.024Z,92.57
2018-11-05T18:57:20.350Z,109.20
2018-11-05T18:59:48.733Z,149.97
2018-11-05T19:02:22.466Z,108.50
2018-11-05T19:04:50.838Z,105.30
2018-11-05T19:07:19.166Z,90.47
2018-11-05T19:09:47.595Z,97.97
2018-11-05T19:12:15.940Z,98.03
2018-11-05T19:14:44.265Z,94.20
2018-11-05T19:17:12.645Z,101.43
2018-11-05T19:19:40.974Z,96.87
2018-11-05T19:22:09.495Z,97.33
2018-11-05T19:24:37.835Z,97.77
2018-11-05T19:27:06.663Z,101.17
2018-11-05T19:29:35.022Z,104.13
2018-11-05T19:32:03.402Z,98.90
2018-11-05T19:34:31.812Z,98.63
2018-11-05T19:37:00.189Z,96.67
2018-11-05T19:39:28.645Z,95.80
2018-11-05T19:41:57.037Z,99.73
2018-11-05T19:44:25.479Z,103.97
2018-11-05T19:46:53.845Z,101.47
2018-11-05T19:49:22.209Z,100.53
2018-11-05T19:51:50.524Z,100.00
2018-11-05T19:54:18.908Z,95.30
2018-11-05T19:56:47.603Z,97.47
2018-11-05T19:59:16.061Z,93.27
2018-11-05T20:01:44.428Z,97.47
2018-11-05T20:04:12.787Z,94.20
2018-11-05T20:06:41.273Z,101.80
2018-11-05T20:09:09.733Z,93.93
2018-11-05T20:11:38.430Z,100.27
2018-11-05T20:14:06.923Z,98.00
2018-11-05T20:16:35.605Z,96.27
2018-11-05T20:19:04.167Z,92.40
2018-11-05T20:21:32.454Z,96.57
2018-11-05T20:24:00.881Z,89.60
2018-11-05T20:26:29.396Z,86.77
2018-11-05T20:28:58.029Z,93.73
2018-11-05T20:31:26.746Z,92.73
2018-11-05T20:33:55.331Z,87.37
2018-11-05T20:36:23.668Z,88.83
2018-11-05T20:38:52.352Z,85.73
2018-11-05T20:41:20.786Z,91.00
2018-11-05T20:43:49.200Z,85.63
2018-11-05T20:46:17.625Z,91.60
2018-11-05T20:48:46.254Z,88.30
2018-11-05T20:51:14.766Z,81.10
2018-11-05T20:53:43.302Z,82.07
2018-11-05T20:56:11.697Z,88.20
2018-11-05T20:58:40.383Z,84.13
2018-11-05T21:01:08.970Z,83.37
2018-11-05T21:03:37.366Z,78.73
2018-11-05T21:06:05.838Z,83.00
2018-11-05T21:08:34.637Z,80.00
2018-11-05T21:11:03.162Z,77.80
2018-11-05T21:13:31.860Z,81.77
2018-11-05T21:16:00.371Z,87.47
2018-11-05T21:18:28.747Z,83.50
2018-11-05T21:20:57.399Z,84.87
2018-11-05T21:23:25.980Z,83.13
2018-11-05T21:25:54.356Z,91.63
2018-11-05T21:28:22.728Z,90.83
2018-11-05T21:30:51.131Z,83.93
2018-11-05T21:33:19.521Z,85.47
2018-11-05T21:35:47.939Z,99.27
2018-11-05T21:38:16.341Z,93.73
2018-11-05T21:40:44.736Z,85.47
2018-11-05T21:43:13.147Z,90.07
2018-11-05T21:45:41.685Z,92.53
2018-11-05T21:48:10.051Z,87.73
2018-11-05T21:50:38.424Z,87.40
2018-11-05T21:53:06.775Z,90.57
2018-11-05T21:55:35.151Z,89.73
2018-11-05T21:58:03.542Z,90.70
2018-11-05T22:00:31.999Z,89.67
2018-11-05T22:03:01.743Z,93.53
2018-11-05T22:05:30.106Z,91.47
2018-11-05T22:07:58.522Z,90.20
2018-11-05T22:10:26.914Z,91.27
2018-11-05T22:12:55.324Z,85.07
2018-11-05T22:15:24.808Z,91.60
2018-11-05T22:17:53.284Z,87.43
2018-11-05T22:20:21.646Z,85.27
2018-11-05T22:22:50.196Z,86.97
2018-11-05T22:25:18.531Z,92.70
2018-11-05T22:27:46.917Z,83.03
2018-11-05T22:30:15.387Z,85.70
2018-11-05T22:32:43.793Z,85.70
2018-11-05T22:35:12.006Z,83.03
2018-11-05T22:37:40.458Z,83.40
2018-11-05T22:40:11.100Z,85.40
2018-11-05T22:42:39.413Z,81.17
2018-11-05T22:45:08.407Z,84.23
2018-11-05T22:47:36.938Z,83.37
2018-11-05T22:50:05.587Z,76.40
2018-11-05T22:52:33.902Z,83.83
2018-11-05T22:55:02.237Z,77.17
2018-11-05T22:57:30.679Z,86.80
2018-11-05T22:59:59.001Z,83.47
2018-11-05T23:02:27.355Z,78.03
2018-11-05T23:04:55.689Z,80.30
2018-11-05T23:07:24.107Z,86.70
2018-11-05T23:09:52.473Z,80.90
2018-11-05T23:12:20.851Z,83.37
2018-11-05T23:14:49.217Z,82.53
2018-11-05T23:17:17.568Z,80.03
2018-11-05T23:19:45.959Z,80.53
2018-11-05T23:22:14.378Z,80.10
2018-11-05T23:24:42.855Z,81.13
2018-11-05T23:27:11.183Z,84.27
2018-11-05T23:29:39.533Z,82.07
2018-11-05T23:32:07.855Z,80.43
2018-11-05T23:34:36.255Z,84.73
2018-11-05T23:37:04.660Z,77.37
2018-11-05T23:39:33.006Z,73.33
2018-11-05T23:42:01.340Z,75.37
2018-11-05T23:44:29.684Z,82.10
2018-11-05T23:46:58.081Z,77.50
2018-11-05T23:49:26.438Z,74.90
2018-11-05T23:51:54.922Z,77.47
2018-11-05T23:54:23.173Z,70.83
2018-11-05T23:56:51.537Z,78.17
2018-11-05T23:59:19.974Z,78.13
